Springlake, Texas
Current Conditions -  °F | °C
As of 10:55 PM on Wednesday 22 Oct 2014 (Local Time) from KPVW Reporting Station
Overcast Overcast  
Wind Chill: 60°   Ceiling: 700
Heat Index: 60°   Visibility: 7mi
Dew Point: 58°   Wind: 10mph
Humidity: 93%   Direction: 180°S
Pressure: 30.13"   Gusts: NA
Location:  34.23°N, 102.31°W
Report Text: KPVW 230355Z AUTO 18009KT 7SM BKN007 OVC012 16/15 A3013 RMK AO2 T01580147
Loading
Personal Weather Stations






























Interactive Weather Map
Tropical Storm Tracking
New forecast layout! Learn more

10-Day Weather Forecast

Advertisements
Track Severe Weather on mobile